EWG8GJ EGKK-EDDS

Flight info

Callsign EWG8GJ
Flight time N/A
Altitude 37000
Route MIMFO Y312 DVR UL9 KONAN UL607 KOK DCT LNO DCT MATUG DCT EMGOD L607 UBIDU L984 RUDUS Z738 UBENO N850 KRH T128 BADSO BADSO2A
Aircraft A319/M-SDE3FGHIRWY/LB1

Departure

Time 2026-04-17 13:35
Airport London Gatwick Airport (EGKK)

Arrival

Time N/A
Airport Stuttgart Airport (EDDS)
Time Latitude Longitude Altitude Speed Heading
2026-04-17 13:15 51.15889 -0.17316 214 ft 0 kts 348°
2026-04-17 13:26 51.15878 -0.17312 213 ft 3 kts 347°
2026-04-17 13:26 51.15859 -0.17304 208 ft 3 kts 344°
2026-04-17 13:26 51.15839 -0.17295 213 ft 3 kts 339°
2026-04-17 13:27 51.15821 -0.17283 212 ft 3 kts 330°
2026-04-17 13:27 51.15805 -0.17265 209 ft 3 kts 306°
2026-04-17 13:27 51.15798 -0.17244 212 ft 2 kts 260°
2026-04-17 13:27 51.15800 -0.17234 213 ft 0 kts 257°
2026-04-17 13:28 51.15800 -0.17233 213 ft 1 kts 257°
2026-04-17 13:30 51.15799 -0.17239 212 ft 2 kts 257°
2026-04-17 13:30 51.15794 -0.17275 210 ft 5 kts 257°
2026-04-17 13:31 51.15784 -0.17344 204 ft 8 kts 257°
2026-04-17 13:31 51.15771 -0.17433 204 ft 8 kts 257°
2026-04-17 13:31 51.15741 -0.17502 208 ft 8 kts 194°
2026-04-17 13:31 51.15685 -0.17487 207 ft 10 kts 165°
2026-04-17 13:32 51.15605 -0.17456 206 ft 13 kts 167°
2026-04-17 13:32 51.15513 -0.17426 211 ft 15 kts 167°
2026-04-17 13:32 51.15413 -0.17391 204 ft 15 kts 168°
2026-04-17 13:32 51.15314 -0.17357 212 ft 14 kts 168°
2026-04-17 13:33 51.15240 -0.17278 206 ft 13 kts 95°
2026-04-17 13:33 51.15259 -0.17134 213 ft 13 kts 77°
2026-04-17 13:33 51.15277 -0.17002 207 ft 11 kts 77°
2026-04-17 13:33 51.15293 -0.16891 208 ft 10 kts 79°
2026-04-17 13:34 51.15260 -0.16819 206 ft 9 kts 162°
2026-04-17 13:34 51.15198 -0.16800 208 ft 10 kts 168°
2026-04-17 13:34 51.15128 -0.16804 202 ft 11 kts 221°
2026-04-17 13:34 51.15105 -0.16920 203 ft 11 kts 257°
2026-04-17 13:35 51.15059 -0.17253 204 ft 65 kts 258°
2026-04-17 13:35 51.14913 -0.18303 212 ft 128 kts 257°
2026-04-17 13:35 51.14712 -0.19899 475 ft 151 kts 256°
2026-04-17 13:35 51.14508 -0.21513 1226 ft 147 kts 253°
2026-04-17 13:36 51.14289 -0.23151 1751 ft 161 kts 255°
2026-04-17 13:36 51.14047 -0.25001 2196 ft 180 kts 255°
2026-04-17 13:36 51.13770 -0.27040 2635 ft 200 kts 256°
2026-04-17 13:36 51.13921 -0.29334 3254 ft 220 kts 288°
2026-04-17 13:37 51.14857 -0.31337 3864 ft 236 kts 318°
2026-04-17 13:37 51.16403 -0.32245 4027 ft 247 kts 356°
2026-04-17 13:37 51.18066 -0.31489 4897 ft 255 kts 31°
2026-04-17 13:37 51.19224 -0.29370 5742 ft 259 kts 70°
2026-04-17 13:38 51.19680 -0.26598 6649 ft 258 kts 80°
2026-04-17 13:38 51.20015 -0.23810 7449 ft 262 kts 82°
2026-04-17 13:38 51.20337 -0.20927 8259 ft 266 kts 82°
2026-04-17 13:38 51.20680 -0.17918 8733 ft 288 kts 81°
2026-04-17 13:39 51.21072 -0.14688 9305 ft 303 kts 80°
2026-04-17 13:39 51.21494 -0.11361 10120 ft 309 kts 80°
2026-04-17 13:39 51.21943 -0.07910 10580 ft 329 kts 80°
2026-04-17 13:39 51.22428 -0.04204 10864 ft 353 kts 79°
2026-04-17 13:40 51.22943 -0.00276 11324 ft 367 kts 79°
2026-04-17 13:40 51.23469 0.03738 11834 ft 373 kts 79°
2026-04-17 13:40 51.24002 0.07818 12518 ft 378 kts 79°
2026-04-17 13:40 51.24539 0.11957 13200 ft 383 kts 80°
2026-04-17 13:41 51.25077 0.16143 13854 ft 388 kts 81°
2026-04-17 13:41 51.25343 0.20435 14441 ft 390 kts 92°
2026-04-17 13:41 51.25139 0.24751 15048 ft 391 kts 100°
2026-04-17 13:41 51.24802 0.29079 15642 ft 395 kts 100°
2026-04-17 13:42 51.24471 0.33448 16245 ft 399 kts 100°
2026-04-17 13:42 51.24140 0.37866 16888 ft 402 kts 100°
2026-04-17 13:42 51.23803 0.42316 17524 ft 406 kts 100°
2026-04-17 13:42 51.23459 0.46816 18132 ft 410 kts 100°
2026-04-17 13:43 51.23110 0.51350 18662 ft 414 kts 100°
2026-04-17 13:43 51.22755 0.55926 19207 ft 417 kts 101°
2026-04-17 13:43 51.22395 0.60539 19778 ft 421 kts 101°
2026-04-17 13:43 51.22029 0.65189 20351 ft 425 kts 101°
2026-04-17 13:44 51.21661 0.69887 20930 ft 429 kts 101°
2026-04-17 13:44 51.21289 0.74623 21490 ft 432 kts 101°
2026-04-17 13:44 51.20912 0.79400 22041 ft 436 kts 101°
2026-04-17 13:44 51.20529 0.84212 22591 ft 440 kts 101°
2026-04-17 13:45 51.20139 0.89066 23131 ft 443 kts 101°
2026-04-17 13:45 51.19742 0.93962 23722 ft 447 kts 101°
2026-04-17 13:45 51.19340 0.98886 24118 ft 449 kts 101°
2026-04-17 13:45 51.18935 1.03831 24530 ft 452 kts 101°
2026-04-17 13:46 51.18528 1.08812 24940 ft 454 kts 101°
2026-04-17 13:46 51.18118 1.13803 25330 ft 456 kts 101°
2026-04-17 13:46 51.17701 1.18819 25716 ft 458 kts 101°
2026-04-17 13:46 51.17276 1.23878 26103 ft 460 kts 101°
2026-04-17 13:47 51.16846 1.28941 26489 ft 463 kts 101°
2026-04-17 13:47 51.16413 1.34035 26864 ft 465 kts 101°
2026-04-17 13:47 51.16013 1.39162 27240 ft 468 kts 100°
2026-04-17 13:47 51.15709 1.44344 27600 ft 471 kts 98°
2026-04-17 13:48 51.15477 1.49563 27964 ft 474 kts 97°
2026-04-17 13:48 51.15343 1.53039 28198 ft 476 kts 96°
2026-04-17 13:48 51.15142 1.58307 28552 ft 478 kts 97°
2026-04-17 13:48 51.14928 1.63594 28901 ft 480 kts 97°
2026-04-17 13:49 51.14689 1.68909 29228 ft 482 kts 97°
2026-04-17 13:49 51.14427 1.74241 29551 ft 484 kts 98°
2026-04-17 13:49 51.14152 1.79591 29872 ft 486 kts 98°
2026-04-17 13:49 51.13869 1.84970 30185 ft 488 kts 98°
2026-04-17 13:50 51.13584 1.90368 30461 ft 490 kts 97°
2026-04-17 13:50 51.13300 1.95785 30729 ft 492 kts 97°
2026-04-17 13:50 51.13016 2.01218 31041 ft 492 kts 97°
2026-04-17 13:50 51.12734 2.06639 31438 ft 491 kts 97°
2026-04-17 13:51 51.12450 2.12044 31824 ft 489 kts 97°
2026-04-17 13:51 51.12162 2.17439 32208 ft 488 kts 97°
2026-04-17 13:51 51.11870 2.22810 32600 ft 487 kts 97°
2026-04-17 13:51 51.11573 2.28167 32995 ft 486 kts 97°
2026-04-17 13:52 51.11272 2.33520 33379 ft 484 kts 97°
2026-04-17 13:52 51.10972 2.38849 33764 ft 483 kts 97°
2026-04-17 13:52 51.10673 2.44164 34176 ft 482 kts 97°
2026-04-17 13:52 51.10372 2.49464 34527 ft 480 kts 97°
2026-04-17 13:53 51.10068 2.54750 34873 ft 479 kts 97°
2026-04-17 13:53 51.09766 2.60017 35215 ft 478 kts 97°
2026-04-17 13:53 51.09403 2.65264 35544 ft 476 kts 102°
2026-04-17 13:53 51.08685 2.70388 35863 ft 474 kts 105°
2026-04-17 13:54 51.07125 2.80553 36478 ft 472 kts 105°
2026-04-17 13:54 51.06348 2.85619 36775 ft 472 kts 105°
2026-04-17 13:55 51.04788 2.95742 37190 ft 472 kts 105°
2026-04-17 13:55 51.04007 3.00800 37212 ft 471 kts 105°
2026-04-17 13:56 51.00866 3.20977 37205 ft 470 kts 105°
2026-04-17 13:56 50.99287 3.30979 37194 ft 470 kts 104°
2026-04-17 13:57 50.97692 3.41063 37202 ft 471 kts 105°
2026-04-17 13:58 50.95279 3.56191 37200 ft 472 kts 105°
2026-04-17 13:58 50.92847 3.71321 37204 ft 472 kts 105°
2026-04-17 13:59 50.90385 3.86425 37204 ft 472 kts 105°
2026-04-17 14:00 50.88735 3.96492 37209 ft 472 kts 105°
2026-04-17 14:00 50.87089 4.06518 37215 ft 472 kts 105°
2026-04-17 14:01 50.85425 4.16582 37226 ft 473 kts 105°
2026-04-17 14:01 50.83748 4.26641 37230 ft 472 kts 105°
2026-04-17 14:02 50.82064 4.36689 37232 ft 472 kts 105°
2026-04-17 14:02 50.80372 4.46720 37233 ft 472 kts 105°
2026-04-17 14:03 50.78668 4.56744 37212 ft 472 kts 105°
2026-04-17 14:03 50.76961 4.66749 37233 ft 471 kts 105°
2026-04-17 14:04 50.75248 4.76737 37219 ft 471 kts 105°
2026-04-17 14:04 50.73533 4.86711 37221 ft 470 kts 105°
2026-04-17 14:05 50.71801 4.96662 37223 ft 470 kts 105°
2026-04-17 14:05 50.70075 5.06544 37227 ft 470 kts 105°
2026-04-17 14:06 50.68320 5.16549 37224 ft 470 kts 105°
2026-04-17 14:06 50.66579 5.26415 37220 ft 470 kts 105°
2026-04-17 14:07 50.64822 5.36347 37216 ft 471 kts 105°
2026-04-17 14:07 50.63045 5.46278 37214 ft 471 kts 105°
2026-04-17 14:08 50.61268 5.56200 37215 ft 471 kts 105°
2026-04-17 14:08 50.59476 5.66119 37210 ft 472 kts 105°
2026-04-17 14:09 50.57355 5.75893 37208 ft 473 kts 111°
2026-04-17 14:09 50.54908 5.85499 37200 ft 473 kts 111°
2026-04-17 14:10 50.52461 5.95099 37198 ft 473 kts 111°
2026-04-17 14:10 50.50010 6.04699 37207 ft 473 kts 111°
2026-04-17 14:11 50.47547 6.14292 37191 ft 474 kts 111°
2026-04-17 14:11 50.45069 6.23875 37199 ft 474 kts 111°
2026-04-17 14:12 50.42584 6.33446 37190 ft 474 kts 111°
2026-04-17 14:12 50.40175 6.43051 37192 ft 473 kts 109°
2026-04-17 14:13 50.36962 6.57662 37191 ft 472 kts 107°
2026-04-17 14:13 50.34817 6.67386 37199 ft 472 kts 108°
2026-04-17 14:14 50.32600 6.77065 37206 ft 472 kts 108°
2026-04-17 14:14 50.30367 6.86719 37220 ft 472 kts 108°
2026-04-17 14:15 50.28136 6.96392 37234 ft 472 kts 108°
2026-04-17 14:15 50.25906 7.06043 37229 ft 473 kts 108°
2026-04-17 14:16 50.23658 7.15710 37228 ft 473 kts 108°
2026-04-17 14:16 50.21417 7.25286 37224 ft 473 kts 108°
2026-04-17 14:17 50.19160 7.34940 37219 ft 473 kts 108°
2026-04-17 14:17 50.17066 7.44642 37215 ft 472 kts 106°
2026-04-17 14:18 50.15074 7.54383 37208 ft 471 kts 106°
2026-04-17 14:18 50.13053 7.64099 37209 ft 471 kts 106°
2026-04-17 14:19 50.10979 7.73778 37208 ft 471 kts 107°
2026-04-17 14:19 50.08887 7.83438 37214 ft 471 kts 107°
2026-04-17 14:20 50.06935 7.93215 37211 ft 469 kts 101°
2026-04-17 14:20 50.05444 8.03081 37207 ft 469 kts 104°
2026-04-17 14:21 50.02733 8.12321 37204 ft 472 kts 123°
2026-04-17 14:21 49.98966 8.20686 37202 ft 473 kts 124°
2026-04-17 14:22 49.95188 8.29056 37209 ft 474 kts 124°
2026-04-17 14:22 49.91430 8.37388 37177 ft 474 kts 124°
2026-04-17 14:23 49.87629 8.45748 37157 ft 475 kts 125°
2026-04-17 14:23 49.83271 8.53424 37165 ft 475 kts 133°
2026-04-17 14:24 49.78640 8.60727 37173 ft 475 kts 140°
2026-04-17 14:24 49.75964 8.63703 37176 ft 473 kts 151°
2026-04-17 14:24 49.73012 8.65919 37176 ft 471 kts 161°
2026-04-17 14:25 49.69869 8.67309 37176 ft 468 kts 172°
2026-04-17 14:25 49.66652 8.67857 37182 ft 465 kts 182°
2026-04-17 14:25 49.60231 8.67181 37173 ft 462 kts 188°
2026-04-17 14:26 49.53821 8.66322 37181 ft 463 kts 188°
2026-04-17 14:26 49.47404 8.65471 37132 ft 463 kts 188°
2026-04-17 14:27 49.44193 8.65045 36701 ft 463 kts 188°
2026-04-17 14:27 49.40969 8.64620 35803 ft 467 kts 187°
2026-04-17 14:27 49.37718 8.64192 34885 ft 472 kts 187°
2026-04-17 14:27 49.34425 8.63754 33968 ft 477 kts 187°
2026-04-17 14:28 49.31108 8.63303 32928 ft 481 kts 187°
2026-04-17 14:28 49.27769 8.62814 31847 ft 482 kts 188°
2026-04-17 14:28 49.24453 8.62296 30849 ft 476 kts 188°
2026-04-17 14:28 49.21199 8.61773 30180 ft 462 kts 188°
2026-04-17 14:29 49.18044 8.61267 29501 ft 451 kts 188°
2026-04-17 14:29 49.14957 8.60776 28880 ft 441 kts 188°